createdAt,value
2022-12-14T00:01:26.645Z,61.23
2022-12-14T00:04:28.347Z,61.26
2022-12-14T00:07:30.161Z,61.50
2022-12-14T00:10:33.197Z,61.67
2022-12-14T00:13:35.606Z,61.20
2022-12-14T00:16:37.162Z,61.75
2022-12-14T00:19:38.694Z,61.49
2022-12-14T00:22:40.224Z,61.58
2022-12-14T00:25:41.758Z,61.52
2022-12-14T00:28:44.909Z,61.34
2022-12-14T00:31:48.836Z,61.56
2022-12-14T00:34:50.756Z,61.50
2022-12-14T00:37:52.271Z,61.44
2022-12-14T00:40:55.075Z,61.64
2022-12-14T00:43:56.612Z,61.42
2022-12-14T00:46:58.144Z,61.52
2022-12-14T00:49:59.726Z,61.66
2022-12-14T00:53:01.302Z,61.63
2022-12-14T00:56:07.566Z,61.26
2022-12-14T00:59:09.153Z,61.44
2022-12-14T01:02:10.786Z,61.49
2022-12-14T01:05:12.465Z,61.29
2022-12-14T01:08:14.975Z,61.50
2022-12-14T01:11:16.543Z,61.25
2022-12-14T01:14:20.229Z,61.28
2022-12-14T01:17:21.804Z,61.19
2022-12-14T01:20:23.315Z,61.41
2022-12-14T01:23:25.130Z,61.37
2022-12-14T01:26:28.772Z,61.45
2022-12-14T01:29:30.305Z,61.20
2022-12-14T01:32:32.211Z,61.10
2022-12-14T01:35:34.028Z,61.31
2022-12-14T01:38:36.290Z,61.38
2022-12-14T01:41:41.005Z,61.75
2022-12-14T01:44:42.471Z,61.39
2022-12-14T01:47:49.764Z,61.77
2022-12-14T01:50:51.872Z,61.42
2022-12-14T01:53:55.629Z,61.57
2022-12-14T01:56:57.844Z,61.47
2022-12-14T02:00:05.354Z,61.41
2022-12-14T02:03:19.995Z,61.28
2022-12-14T02:06:29.145Z,61.48
2022-12-14T02:09:35.980Z,61.43
2022-12-14T02:12:47.159Z,61.71
2022-12-14T02:15:48.950Z,61.27
2022-12-14T02:18:50.529Z,61.40
2022-12-14T02:22:01.038Z,61.51
2022-12-14T02:25:05.424Z,61.61
2022-12-14T02:28:09.991Z,61.61
2022-12-14T02:31:30.993Z,61.39
2022-12-14T02:34:50.852Z,61.37
2022-12-14T02:37:55.152Z,61.40
2022-12-14T02:41:38.344Z,61.61
2022-12-14T02:44:57.587Z,61.30
2022-12-14T02:48:03.463Z,61.17
2022-12-14T02:51:34.167Z,61.26
2022-12-14T02:54:55.290Z,61.24
2022-12-14T02:58:24.312Z,61.41
2022-12-14T03:01:28.985Z,61.87
2022-12-14T03:04:30.588Z,61.55
2022-12-14T03:07:41.066Z,61.18
2022-12-14T03:10:52.735Z,61.65
2022-12-14T03:13:59.515Z,61.24
2022-12-14T03:17:07.889Z,61.52
2022-12-14T03:20:13.705Z,61.80
2022-12-14T03:23:19.863Z,61.75
2022-12-14T03:26:21.328Z,61.52
2022-12-14T03:29:28.286Z,61.61
2022-12-14T03:32:33.335Z,61.03
2022-12-14T03:35:43.141Z,61.02
2022-12-14T03:38:49.304Z,61.07
2022-12-14T03:41:58.894Z,61.36
2022-12-14T03:45:23.133Z,61.22
2022-12-14T03:48:30.380Z,61.18
2022-12-14T03:51:37.945Z,61.49
2022-12-14T03:54:53.939Z,61.21
2022-12-14T03:58:01.618Z,61.66
2022-12-14T04:01:18.456Z,61.59
2022-12-14T04:04:30.818Z,61.46
2022-12-14T04:07:43.549Z,61.14
2022-12-14T04:11:08.276Z,61.31
2022-12-14T04:14:51.446Z,61.44
2022-12-14T04:18:16.803Z,61.21
2022-12-14T04:21:23.390Z,61.60
2022-12-14T04:24:54.238Z,61.62
2022-12-14T04:28:03.598Z,61.61
2022-12-14T04:31:09.935Z,61.45
2022-12-14T04:34:14.107Z,61.72
2022-12-14T04:37:19.621Z,61.34
2022-12-14T04:40:36.110Z,61.58
2022-12-14T04:43:42.297Z,61.23
2022-12-14T04:46:45.824Z,61.47
2022-12-14T04:50:00.128Z,61.20
2022-12-14T04:53:11.585Z,61.07
2022-12-14T04:56:22.764Z,61.61
2022-12-14T04:59:25.192Z,61.58
2022-12-14T05:02:38.927Z,61.60
2022-12-14T05:05:58.887Z,61.26
2022-12-14T05:09:29.481Z,61.54
2022-12-14T05:12:47.320Z,61.06
2022-12-14T05:15:51.987Z,61.54
2022-12-14T05:18:53.594Z,61.11
2022-12-14T05:21:56.129Z,61.79
2022-12-14T05:24:57.989Z,61.09
2022-12-14T05:27:59.546Z,61.04
2022-12-14T05:31:01.103Z,61.11
2022-12-14T05:34:02.692Z,61.53
2022-12-14T05:37:04.283Z,60.95
2022-12-14T05:40:06.957Z,60.79
2022-12-14T05:43:12.194Z,61.17
2022-12-14T05:46:13.774Z,61.48
2022-12-14T05:49:15.387Z,60.90
2022-12-14T05:52:17.468Z,61.49
2022-12-14T05:55:19.038Z,61.12
2022-12-14T05:58:20.545Z,60.98
2022-12-14T06:01:22.188Z,61.04
2022-12-14T06:04:23.911Z,61.40
2022-12-14T06:07:27.959Z,61.47
2022-12-14T06:10:29.974Z,61.12
2022-12-14T06:13:31.691Z,61.02
2022-12-14T06:16:34.015Z,61.61
2022-12-14T06:19:35.528Z,60.99
2022-12-14T06:22:39.485Z,61.29
2022-12-14T06:25:44.336Z,61.21
2022-12-14T06:28:46.032Z,62.88
2022-12-14T06:31:49.215Z,63.87
2022-12-14T06:34:51.243Z,63.78
2022-12-14T06:37:52.792Z,62.30
2022-12-14T06:40:55.301Z,61.53
2022-12-14T06:43:57.258Z,61.69
2022-12-14T06:46:59.150Z,61.50
2022-12-14T06:50:00.774Z,60.90
2022-12-14T06:53:02.335Z,60.90
2022-12-14T06:56:12.004Z,61.04
2022-12-14T06:59:16.920Z,61.08
2022-12-14T07:02:18.566Z,61.29
2022-12-14T07:05:20.651Z,61.09
2022-12-14T07:08:22.187Z,61.36
2022-12-14T07:11:25.119Z,60.93
2022-12-14T07:14:26.644Z,61.54
2022-12-14T07:17:28.244Z,60.77
2022-12-14T07:20:29.769Z,61.25
2022-12-14T07:23:32.955Z,61.15
2022-12-14T07:26:34.882Z,60.77
2022-12-14T07:29:36.459Z,61.37
2022-12-14T07:32:38.013Z,60.99
2022-12-14T07:35:39.518Z,60.81
2022-12-14T07:38:42.184Z,61.27
2022-12-14T07:41:45.446Z,60.86
2022-12-14T07:44:47.132Z,60.65
2022-12-14T07:47:48.668Z,61.07
2022-12-14T07:50:50.195Z,60.65
2022-12-14T07:53:52.354Z,61.25
2022-12-14T07:56:53.907Z,61.48
2022-12-14T07:59:57.723Z,61.30
2022-12-14T08:02:59.519Z,61.19
2022-12-14T08:06:04.961Z,60.94
2022-12-14T08:09:08.272Z,61.20
2022-12-14T08:12:09.795Z,60.79
2022-12-14T08:15:11.431Z,61.49
2022-12-14T08:18:12.960Z,63.49
2022-12-14T08:21:15.847Z,61.94
2022-12-14T08:24:17.354Z,61.26
2022-12-14T08:27:18.944Z,60.87
2022-12-14T08:30:20.563Z,60.78
2022-12-14T08:33:22.931Z,61.32
2022-12-14T08:36:29.610Z,61.08
2022-12-14T08:39:31.148Z,61.14
2022-12-14T08:42:32.730Z,61.81
2022-12-14T08:45:34.937Z,61.22
2022-12-14T08:48:36.784Z,61.39
2022-12-14T08:51:38.582Z,61.47
2022-12-14T08:54:40.156Z,61.39
2022-12-14T08:57:41.712Z,61.62
2022-12-14T09:00:43.527Z,61.04
2022-12-14T09:03:46.839Z,61.24
2022-12-14T09:06:48.360Z,61.08
2022-12-14T09:09:49.897Z,61.46
2022-12-14T09:12:51.644Z,60.91
2022-12-14T09:16:01.699Z,61.07
2022-12-14T09:19:03.335Z,60.97
2022-12-14T09:22:04.975Z,61.10
2022-12-14T09:25:06.948Z,61.75
2022-12-14T09:28:08.469Z,61.53
2022-12-14T09:31:12.646Z,61.06
2022-12-14T09:34:14.331Z,61.40
2022-12-14T09:37:16.176Z,61.45
2022-12-14T09:40:17.840Z,61.19
2022-12-14T09:43:42.262Z,61.54
2022-12-14T09:46:59.644Z,63.31
2022-12-14T09:50:27.107Z,62.11
2022-12-14T09:53:29.511Z,61.89
2022-12-14T09:56:32.121Z,63.01
2022-12-14T09:59:34.177Z,61.81
2022-12-14T10:02:53.867Z,61.37
2022-12-14T10:06:28.116Z,61.19
2022-12-14T10:09:47.552Z,61.21
2022-12-14T10:13:18.864Z,61.18
2022-12-14T10:16:23.499Z,61.03
2022-12-14T10:19:32.278Z,61.33
2022-12-14T10:22:43.105Z,61.59
2022-12-14T10:25:46.692Z,61.36
2022-12-14T10:29:15.537Z,61.45
2022-12-14T10:32:33.804Z,61.58
2022-12-14T10:35:58.034Z,61.44
2022-12-14T10:39:22.420Z,61.56
2022-12-14T10:42:56.773Z,61.61
2022-12-14T10:46:16.743Z,63.40
2022-12-14T10:49:45.701Z,64.24
2022-12-14T10:52:51.572Z,64.08
2022-12-14T10:55:59.434Z,62.93
2022-12-14T10:59:22.258Z,62.16
2022-12-14T11:02:28.766Z,61.67
2022-12-14T11:05:41.397Z,61.75
2022-12-14T11:08:49.209Z,61.26
2022-12-14T11:12:07.512Z,61.34
2022-12-14T11:15:24.505Z,61.09
2022-12-14T11:18:32.469Z,62.05
2022-12-14T11:21:37.665Z,61.66
2022-12-14T11:24:48.614Z,61.66
2022-12-14T11:27:50.212Z,61.58
2022-12-14T11:30:55.101Z,61.92
2022-12-14T11:33:58.992Z,61.51
2022-12-14T11:37:24.416Z,61.94
2022-12-14T11:40:27.650Z,61.84
2022-12-14T11:43:34.538Z,61.37
2022-12-14T11:46:47.306Z,61.28
2022-12-14T11:49:50.624Z,61.59
2022-12-14T11:53:11.045Z,61.92
2022-12-14T11:56:17.165Z,61.16
2022-12-14T11:59:19.721Z,61.44
2022-12-14T12:02:30.119Z,61.10
2022-12-14T12:05:33.653Z,61.22
2022-12-14T12:08:38.173Z,61.22
2022-12-14T12:11:45.275Z,61.36
2022-12-14T12:14:47.916Z,61.73
2022-12-14T12:17:54.618Z,61.54
2022-12-14T12:21:31.207Z,61.11
2022-12-14T12:24:34.448Z,61.52
2022-12-14T12:27:36.301Z,61.45
2022-12-14T12:30:43.246Z,61.19
2022-12-14T12:33:51.163Z,60.68
2022-12-14T12:37:24.502Z,61.30
2022-12-14T12:40:38.411Z,61.10
2022-12-14T12:43:54.394Z,61.58
2022-12-14T12:47:46.018Z,60.73
2022-12-14T12:50:56.751Z,61.47
2022-12-14T12:54:22.843Z,61.50
2022-12-14T12:57:30.101Z,61.03
2022-12-14T13:00:32.870Z,60.64
2022-12-14T13:03:42.423Z,60.84
2022-12-14T13:06:44.059Z,61.20
2022-12-14T13:10:01.878Z,61.39
2022-12-14T13:13:13.909Z,60.84
2022-12-14T13:16:27.186Z,61.25
2022-12-14T13:20:01.007Z,60.89
2022-12-14T13:23:36.028Z,61.68
2022-12-14T13:26:57.645Z,61.36
2022-12-14T13:30:38.919Z,61.26
2022-12-14T13:34:08.186Z,61.64
2022-12-14T13:37:15.664Z,61.80
2022-12-14T13:40:56.181Z,61.43
2022-12-14T13:44:33.520Z,61.00
2022-12-14T13:47:44.760Z,61.21
2022-12-14T13:51:01.467Z,60.80
2022-12-14T13:54:07.925Z,61.19
2022-12-14T13:57:21.537Z,61.84
2022-12-14T14:00:46.733Z,61.64
2022-12-14T14:03:52.188Z,60.78
2022-12-14T14:06:56.061Z,61.18
2022-12-14T14:10:02.171Z,61.47
2022-12-14T14:13:28.413Z,61.08
2022-12-14T14:16:40.647Z,61.13
2022-12-14T14:19:42.704Z,61.37
2022-12-14T14:23:12.844Z,61.28
2022-12-14T14:26:26.504Z,60.95
2022-12-14T14:29:30.061Z,61.39
2022-12-14T14:32:34.810Z,61.23
2022-12-14T14:35:37.859Z,61.40
2022-12-14T14:38:40.708Z,61.02
2022-12-14T14:41:43.578Z,61.23
2022-12-14T14:44:52.730Z,61.38
2022-12-14T14:47:57.020Z,61.30
2022-12-14T14:51:10.605Z,61.48
2022-12-14T14:54:44.767Z,61.21
2022-12-14T14:58:22.104Z,61.40
2022-12-14T15:01:28.381Z,61.11
2022-12-14T15:04:42.312Z,61.41
2022-12-14T15:07:44.019Z,61.26
2022-12-14T15:10:46.683Z,61.60
2022-12-14T15:14:06.798Z,62.52
2022-12-14T15:17:30.288Z,61.29
2022-12-14T15:20:31.844Z,61.44
2022-12-14T15:23:39.707Z,61.20
2022-12-14T15:26:41.796Z,61.47
2022-12-14T15:29:45.414Z,61.24
2022-12-14T15:32:57.161Z,60.91
2022-12-14T15:36:04.644Z,61.68
2022-12-14T15:39:07.134Z,61.59
2022-12-14T15:42:17.000Z,61.10
2022-12-14T15:45:23.090Z,60.92
2022-12-14T15:48:31.287Z,61.16
2022-12-14T15:51:39.245Z,60.83
2022-12-14T15:54:42.724Z,61.12
2022-12-14T15:57:44.304Z,60.72
2022-12-14T16:00:49.170Z,60.55
2022-12-14T16:03:54.823Z,60.88
2022-12-14T16:07:18.653Z,60.64
2022-12-14T16:10:25.574Z,61.02
2022-12-14T16:13:35.859Z,60.85
2022-12-14T16:16:37.847Z,60.80
2022-12-14T16:19:58.114Z,60.78
2022-12-14T16:23:01.495Z,60.40
2022-12-14T16:26:14.924Z,60.78
2022-12-14T16:29:22.833Z,60.94
2022-12-14T16:32:24.501Z,60.64
2022-12-14T16:35:34.941Z,60.63
2022-12-14T16:38:54.780Z,60.91
2022-12-14T16:42:00.700Z,60.87
2022-12-14T16:45:02.313Z,60.86
2022-12-14T16:48:18.334Z,60.78
2022-12-14T16:51:28.598Z,60.81
2022-12-14T16:54:40.140Z,60.51
2022-12-14T16:57:53.352Z,60.97
2022-12-14T17:01:03.147Z,60.90
2022-12-14T17:04:08.263Z,60.59
2022-12-14T17:07:14.831Z,60.79
2022-12-14T17:10:19.402Z,60.80
2022-12-14T17:13:20.996Z,60.88
2022-12-14T17:16:22.613Z,60.85
2022-12-14T17:19:32.828Z,60.62
2022-12-14T17:22:34.424Z,60.77
2022-12-14T17:25:37.422Z,60.54
2022-12-14T17:28:39.000Z,60.68
2022-12-14T17:31:44.629Z,60.63
2022-12-14T17:34:51.579Z,60.79
2022-12-14T17:37:53.163Z,60.71
2022-12-14T17:40:55.500Z,60.64
2022-12-14T17:43:57.999Z,60.74
2022-12-14T17:46:59.519Z,60.46
2022-12-14T17:50:01.818Z,60.62
2022-12-14T17:53:03.467Z,60.69
2022-12-14T17:56:05.420Z,60.74
2022-12-14T17:59:06.987Z,60.79
2022-12-14T18:02:30.302Z,60.76
2022-12-14T18:05:32.729Z,60.49
2022-12-14T18:08:34.292Z,60.79
2022-12-14T18:11:39.152Z,60.40
2022-12-14T18:14:46.693Z,60.46
2022-12-14T18:17:49.647Z,60.40
2022-12-14T18:20:58.515Z,60.58
2022-12-14T18:24:00.776Z,61.03
2022-12-14T18:27:02.330Z,60.81
2022-12-14T18:30:04.284Z,60.74
2022-12-14T18:33:07.327Z,60.94
2022-12-14T18:36:11.760Z,60.66
2022-12-14T18:39:13.323Z,60.38
2022-12-14T18:42:20.669Z,60.57
2022-12-14T18:45:29.387Z,60.21
2022-12-14T18:48:30.964Z,60.31
2022-12-14T18:51:32.489Z,60.60
2022-12-14T18:54:34.043Z,60.56
2022-12-14T18:57:35.633Z,61.03
2022-12-14T19:00:37.275Z,60.54
2022-12-14T19:03:39.639Z,60.30
2022-12-14T19:06:44.559Z,60.46
2022-12-14T19:09:46.944Z,60.22
2022-12-14T19:12:49.217Z,60.13
2022-12-14T19:15:50.884Z,60.17
2022-12-14T19:18:52.891Z,59.91
2022-12-14T19:21:54.407Z,60.15
2022-12-14T19:24:55.979Z,60.48
2022-12-14T19:31:19.347Z,60.79
2022-12-14T19:34:20.939Z,60.67
2022-12-14T19:37:23.084Z,60.75
2022-12-14T19:40:24.768Z,60.39
2022-12-14T19:43:26.672Z,60.62
2022-12-14T19:46:28.269Z,60.53
2022-12-14T19:49:30.999Z,60.64
2022-12-14T19:52:34.120Z,60.72
2022-12-14T19:55:35.855Z,60.15
2022-12-14T19:58:37.401Z,60.48
2022-12-14T20:01:42.028Z,60.41
2022-12-14T20:04:48.092Z,60.24
2022-12-14T20:07:49.635Z,60.54
2022-12-14T20:10:54.699Z,60.44
2022-12-14T20:14:02.777Z,60.29
2022-12-14T20:17:04.722Z,60.04
2022-12-14T20:20:06.812Z,60.54
2022-12-14T20:23:08.402Z,60.42
2022-12-14T20:26:15.705Z,60.65
2022-12-14T20:29:17.315Z,60.54
2022-12-14T20:32:18.859Z,60.25
2022-12-14T20:35:20.385Z,60.59
2022-12-14T20:38:21.981Z,60.61
2022-12-14T20:41:24.706Z,60.00
2022-12-14T20:44:26.320Z,59.96
2022-12-14T20:47:27.859Z,59.98
2022-12-14T20:50:29.410Z,60.25
2022-12-14T20:53:31.419Z,60.08
2022-12-14T20:56:34.948Z,60.22
2022-12-14T20:59:36.599Z,60.36
2022-12-14T21:02:38.254Z,60.29
2022-12-14T21:05:41.403Z,60.34
2022-12-14T21:09:01.690Z,60.38
2022-12-14T21:12:21.642Z,60.75
2022-12-14T21:15:23.436Z,60.38
2022-12-14T21:18:25.024Z,60.07
2022-12-14T21:21:26.906Z,60.48
2022-12-14T21:25:01.092Z,60.04
2022-12-14T21:27:50.191Z,60.35
2022-12-14T21:30:51.779Z,59.83
2022-12-14T21:33:55.084Z,59.91
2022-12-14T21:36:56.588Z,60.17
2022-12-14T21:39:58.115Z,59.67
2022-12-14T21:42:59.650Z,60.14
2022-12-14T21:46:01.199Z,60.19
2022-12-14T21:49:03.471Z,59.65
2022-12-14T21:52:07.515Z,60.18
2022-12-14T21:55:09.601Z,59.70
2022-12-14T21:58:16.945Z,59.77
2022-12-14T22:01:18.592Z,59.89
2022-12-14T22:04:21.022Z,59.75
2022-12-14T22:07:25.141Z,60.09
2022-12-14T22:10:26.735Z,60.16
2022-12-14T22:13:28.584Z,60.19
2022-12-14T22:16:32.953Z,59.68
2022-12-14T22:19:34.734Z,59.83
2022-12-14T22:22:36.787Z,59.92
2022-12-14T22:25:38.355Z,60.31
2022-12-14T22:28:40.308Z,59.79
2022-12-14T22:31:42.085Z,59.99
2022-12-14T22:34:43.688Z,59.90
2022-12-14T22:37:45.215Z,60.30
2022-12-14T22:40:46.728Z,59.96
2022-12-14T22:43:48.319Z,60.03
2022-12-14T22:46:50.134Z,60.25
2022-12-14T22:49:51.748Z,60.22
2022-12-14T22:52:53.545Z,59.90
2022-12-14T22:55:59.573Z,60.09
2022-12-14T22:59:14.860Z,60.04
2022-12-14T23:02:16.686Z,60.17
2022-12-14T23:05:18.572Z,60.36
2022-12-14T23:08:20.715Z,59.83
2022-12-14T23:11:40.764Z,60.29
2022-12-14T23:15:00.677Z,60.26
2022-12-14T23:18:23.439Z,60.40
2022-12-14T23:21:43.849Z,59.95
2022-12-14T23:25:03.828Z,59.65
2022-12-14T23:28:24.808Z,59.92
2022-12-14T23:31:45.135Z,59.93
2022-12-14T23:35:05.026Z,60.06
2022-12-14T23:38:26.562Z,59.93
2022-12-14T23:41:46.651Z,59.95
2022-12-14T23:45:06.691Z,60.06
2022-12-14T23:48:27.030Z,60.22
2022-12-14T23:51:47.901Z,59.91
2022-12-14T23:55:07.624Z,59.97
2022-12-14T23:58:27.586Z,60.43
